Latest Weather Observations for Griffith

IDN60801

Issued at 11:52 pm EST Tuesday 23 April 2019 (issued every 10 minutes, with the page automatically refreshed every 10 minutes)

About weather observations | Map of weather stations | Latest weather observations for NSW | Other Formats
Station Details ID: 075041 Name: GRIFFITH AIRPORT AWS Lat: -34.25 Lon: 146.07 Height: 134.0 m
Data from the previous 72 hours. | See also: Recent months at Griffith
Date/Time
EST
Temp
°C
App
Temp
°C
Dew
Point
°C
Rel
Hum
%
Delta-T
°C
Wind Press
QNH
hPa
Press
MSL
hPa
Rain since
9am
mm
Dir  Spd
km/h
Gust
km/h
Spd
kts
Gust
kts
23/11:30pm 18.5 17.6 15.9 85 1.5 ESE 15 17 8 9 1022.9 1022.7 0.0
23/11:00pm 19.8 18.9 15.9 78 2.3 SE 15 17 8 9 1023.1 1022.9 0.0
23/10:30pm 20.3 19.5 16.1 77 2.5 SE 15 19 8 10 1023.6 1023.3 0.0
23/10:00pm 20.5 19.7 16.1 76 2.6 SE 15 19 8 10 1024.0 1023.7 0.0
23/09:30pm 20.8 19.6 16.2 75 2.8 SE 17 20 9 11 1024.0 1023.7 0.0
23/09:00pm 20.9 20.2 16.3 75 2.8 SE 15 19 8 10 1024.1 1023.8 0.0
23/08:30pm 20.7 20.3 16.3 76 2.7 SE 13 17 7 9 1024.1 1023.8 0.0
23/08:00pm 21.0 20.8 16.6 76 2.7 SE 13 19 7 10 1023.9 1023.6 0.0
23/07:30pm 21.3 21.2 16.9 76 2.7 SE 13 17 7 9 1023.8 1023.5 0.0
23/07:00pm 21.4 21.3 17.0 76 2.7 SSE 13 17 7 9 1023.7 1023.4 0.0
23/06:30pm 22.0 22.2 17.6 76 2.7 SE 13 19 7 10 1023.2 1023.0 0.0
23/06:00pm 22.5 22.5 17.2 72 3.3 SE 13 19 7 10 1022.9 1022.7 0.0
23/05:30pm 23.4 23.8 17.2 68 3.8 SE 11 15 6 8 1022.8 1022.6 0.0
23/05:00pm 23.6 23.6 17.1 67 4.0 SE 13 19 7 10 1022.5 1022.3 0.0
23/04:30pm 23.8 22.8 16.6 64 4.4 SE 17 20 9 11 1022.2 1022.0 0.0
23/04:00pm 23.7 23.3 17.2 67 4.0 SE 15 19 8 10 1022.3 1022.1 0.0
23/03:30pm 23.8 23.2 16.6 64 4.4 SE 15 20 8 11 1022.3 1022.1 0.0
23/03:00pm 24.2 24.2 17.2 65 4.3 SE 13 17 7 9 1022.4 1022.2 0.0
23/02:30pm 24.0 24.5 17.5 67 4.1 SE 11 20 6 11 1022.6 1022.4 0.0
23/02:00pm 24.5 26.0 15.7 58 5.3 NE 2 7 1 4 1022.8 1022.6 0.0
23/01:30pm 24.6 26.0 15.5 57 5.5 E 2 7 1 4 1023.0 1022.8 0.0
23/01:00pm 23.6 24.0 15.4 60 4.9 NE 7 13 4 7 1023.2 1023.0 0.0
23/12:30pm 23.5 23.9 16.3 64 4.4 NNE 9 15 5 8 1023.7 1023.4 0.0
23/12:00pm 23.1 24.0 16.2 65 4.2 NNE 6 11 3 6 1024.2 1023.9 0.0
23/11:30am 22.4 23.4 16.9 71 3.4 E 7 11 4 6 1024.6 1024.3 0.0
23/11:00am 22.0 23.2 17.4 75 2.8 ENE 7 11 4 6 1024.8 1024.5 0.0
23/10:30am 21.3 20.5 17.1 77 2.6 ENE 17 20 9 11 1024.9 1024.6 0.0
23/10:00am 19.7 19.5 16.7 83 1.8 E 13 17 7 9 1025.0 1024.7 0.0
23/09:30am 19.4 20.5 17.0 86 1.5 E 7 11 4 6 1025.1 1024.8 0.0
23/09:00am 18.9 19.5 16.9 88 1.2 ESE 9 11 5 6 1025.3 1025.0 3.6
23/08:30am 18.7 19.9 16.9 89 1.1 ENE 6 9 3 5 1025.3 1025.0 3.6
23/08:00am 18.0 18.3 16.9 93 0.7 E 11 13 6 7 1025.1 1024.8 3.6
23/07:30am 17.5 18.1 16.7 95 0.5 E 9 11 5 6 1024.7 1024.4 3.6
23/07:00am 17.6 18.5 16.5 93 0.7 SE 7 13 4 7 1024.2 1023.9 3.6
23/06:30am 17.5 16.8 16.5 94 0.6 SE 15 20 8 11 1023.7 1023.4 3.6
23/06:00am 17.6 17.0 16.6 94 0.6 SE 15 20 8 11 1023.3 1023.1 3.6
23/05:30am 17.6 17.1 16.8 95 0.5 SSE 15 19 8 10 1023.3 1023.1 3.6
23/05:00am 17.7 16.8 16.9 95 0.5 SE 17 20 9 11 1023.1 1022.9 3.6
23/04:30am 17.8 17.0 17.0 95 0.5 SSE 17 22 9 12 1022.9 1022.7 3.6
23/04:00am 17.8 17.0 17.0 95 0.5 SSE 17 20 9 11 1022.8 1022.6 3.6
23/03:30am 17.9 17.6 17.3 96 0.4 SSE 15 19 8 10 1022.8 1022.6 3.6
23/03:00am 17.7 17.3 17.1 96 0.4 S 15 20 8 11 1023.0 1022.8 3.6
23/02:30am 17.6 16.8 17.0 96 0.4 S 17 22 9 12 1023.0 1022.8 3.6
23/02:00am 17.7 18.0 17.1 96 0.4 S 11 17 6 9 1023.4 1023.2 3.6
23/01:30am 17.8 17.8 17.2 96 0.4 SSE 13 17 7 9 1023.4 1023.2 3.6
23/01:00am 17.9 17.6 17.3 96 0.4 SE 15 19 8 10 1023.6 1023.3 3.6
23/12:30am 18.0 18.1 17.4 96 0.4 SE 13 15 7 8 1023.7 1023.4 3.6
23/12:00am 17.8 20.0 17.5 98 0.2 S 2 9 1 5 1023.7 1023.4 3.6
 
Date/Time
EST
Temp
°C
App
Temp
°C
Dew
Point
°C
Rel
Hum
%
Delta-T
°C
Wind Press
QNH
hPa
Press
MSL
hPa
Rain since
9am
mm
Dir  Spd
km/h
Gust
km/h
Spd
kts
Gust
kts
22/11:30pm 17.8 20.3 17.3 97 0.3 CALM 0 0 0 0 1023.9 1023.6 3.6
22/11:00pm 17.7 19.0 17.2 97 0.3 NE 6 9 3 5 1024.0 1023.7 3.6
22/10:30pm 17.9 20.0 17.3 96 0.4 S 2 6 1 3 1023.9 1023.6 3.6
22/10:00pm 17.9 19.1 17.3 96 0.4 SSE 7 11 4 6 1024.1 1023.8 3.6
22/09:30pm 18.1 18.7 17.6 97 0.3 SSE 11 19 6 10 1024.0 1023.7 3.6
22/09:00pm 18.0 18.9 17.5 97 0.3 SE 9 13 5 7 1023.8 1023.5 3.6
22/08:30pm 18.2 19.6 17.7 97 0.3 SSE 7 9 4 5 1023.8 1023.5 3.6
22/08:00pm 18.2 20.9 17.7 97 0.3 CALM 0 0 0 0 1023.7 1023.4 3.6
22/07:30pm 18.4 20.9 18.1 98 0.2 SW 2 7 1 4 1023.6 1023.3 3.4
22/07:00pm 18.3 19.8 18.0 98 0.2 SSW 7 11 4 6 1023.2 1023.0 3.2
22/06:30pm 18.4 19.4 17.8 96 0.4 WNW 9 13 5 7 1023.1 1022.9 2.6
22/06:00pm 18.6 19.6 17.8 95 0.5 SW 9 11 5 6 1022.5 1022.3 2.6
22/05:30pm 18.5 19.5 17.7 95 0.5 SW 9 11 5 6 1022.2 1022.0 2.6
22/05:00pm 18.7 19.2 17.5 93 0.7 SSW 11 15 6 8 1022.3 1022.1 2.4
22/04:41pm 18.8 18.8 17.1 90 1.0 SW 13 17 7 9 1022.2 1022.0 2.4
22/04:30pm 18.8 18.8 17.1 90 1.0 SW 13 17 7 9 1022.3 1022.1 2.4
22/04:12pm 18.8 18.8 17.1 90 1.0 SW 13 17 7 9 1022.1 1021.9 2.4
22/04:00pm 18.9 18.8 17.0 89 1.2 SW 13 17 7 9 1022.1 1021.9 2.4
22/03:30pm 19.1 18.8 17.4 90 1.0 WSW 15 19 8 10 1022.0 1021.8 2.4
22/03:00pm 19.3 19.4 17.4 89 1.2 SSW 13 17 7 9 1021.6 1021.4 2.4
22/02:30pm 19.1 19.5 17.2 89 1.2 SSW 11 13 6 7 1021.3 1021.1 2.4
22/02:14pm 18.9 18.8 17.0 89 1.2 SSW 13 15 7 8 1021.3 1021.1 2.4
22/02:00pm 18.9 18.9 17.2 90 1.0 SSW 13 19 7 10 1021.2 1021.0 2.4
22/01:33pm 18.7 18.8 17.5 93 0.7 SSW 13 17 7 9 1021.2 1021.0 2.4
22/01:30pm 18.7 18.9 17.7 94 0.6 SSW 13 17 7 9 1021.2 1021.0 2.4
22/01:12pm 18.5 18.6 17.5 94 0.6 SSW 13 15 7 8 1021.2 1021.0 2.4
22/01:00pm 18.6 19.2 17.8 95 0.5 SSW 11 13 6 7 1021.2 1021.0 2.4
22/12:44pm 18.5 19.2 17.9 96 0.4 SSW 11 13 6 7 1021.4 1021.2 2.4
22/12:30pm 18.4 19.1 17.9 97 0.3 SSW 11 13 6 7 1021.4 1021.2 2.4
22/12:00pm 18.0 20.6 17.4 96 0.4 CALM 0 0 0 0 1022.1 1021.9 2.2
22/11:30am 18.0 19.3 17.5 97 0.3 WSW 7 9 4 5 1022.6 1022.4 1.8
22/11:25am 18.0 19.3 17.5 97 0.3 WSW 7 9 4 5 1022.6 1022.4 1.8
22/11:00am 18.0 19.4 17.7 98 0.2 W 7 9 4 5 1022.9 1022.7 1.4
22/10:55am 18.0 19.4 17.7 98 0.2 W 7 9 4 5 1023.0 1022.8 1.4
22/10:53am 18.0 19.0 17.7 98 0.2 W 9 9 5 5 1023.0 1022.8 1.4
22/10:30am 17.9 20.5 17.4 97 0.3 CALM 0 7 0 4 1022.8 1022.6 1.0
22/10:03am 17.8 20.3 17.3 97 0.3 CALM 0 0 0 0 1022.8 1022.6 0.6
22/10:00am 17.9 20.5 17.4 97 0.3 CALM 0 0 0 0 1022.8 1022.6 0.6
22/09:44am 17.8 20.3 17.3 97 0.3 CALM 0 0 0 0 1022.7 1022.5 0.2
22/09:30am 17.7 20.2 17.2 97 0.3 CALM 0 0 0 0 1022.7 1022.5 0.2
22/09:00am 17.6 20.1 17.3 98 0.2 CALM 0 0 0 0 1022.9 1022.7 44.6
22/08:33am 17.6 19.0 17.4 99 0.1 WNW 6 7 3 4 1022.9 1022.7 44.2
22/08:30am 17.5 18.9 17.3 99 0.1 WNW 6 7 3 4 1022.9 1022.7 44.2
22/08:00am 17.5 20.0 17.2 98 0.2 CALM 0 0 0 0 1022.6 1022.4 43.8
22/07:30am 17.4 19.9 17.2 99 0.1 CALM 0 0 0 0 1022.2 1022.0 43.4
22/07:00am 17.4 18.7 17.2 99 0.1 ESE 6 7 3 4 1021.8 1021.6 42.8
22/06:30am 17.4 19.9 17.2 99 0.1 CALM 0 0 0 0 1021.8 1021.6 42.6
22/06:00am 17.4 19.9 17.2 99 0.1 CALM 0 0 0 0 1021.6 1021.4 42.4
22/05:30am 17.3 19.0 17.1 99 0.1 NE 4 9 2 5 1021.2 1021.0 42.2
22/05:00am 17.2 18.5 17.0 99 0.1 S 6 9 3 5 1021.0 1020.8 42.2
22/04:30am 17.3 18.0 17.1 99 0.1 E 9 13 5 7 1020.7 1020.5 42.0
22/04:00am 17.4 18.2 17.2 99 0.1 ESE 9 13 5 7 1020.6 1020.4 41.8
22/03:43am 17.5 18.7 17.3 99 0.1 SE 7 11 4 6 1020.6 1020.4 41.8
22/03:30am 17.6 19.8 17.4 99 0.1 SSW 2 9 1 5 1020.9 1020.7 41.8
22/03:00am 17.5 18.7 17.3 99 0.1 NNW 7 11 4 6 1021.6 1021.4 41.2
22/02:46am 17.4 18.2 17.2 99 0.1 N 9 11 5 6 1021.6 1021.4 41.0
22/02:30am 17.3 17.6 17.1 99 0.1 ESE 11 15 6 8 1021.2 1021.0 40.8
22/02:00am 17.5 17.9 17.3 99 0.1 ESE 11 15 6 8 1021.2 1021.0 40.6
22/01:30am 17.6 18.4 17.4 99 0.1 ESE 9 11 5 6 1021.8 1021.6 38.6
22/01:00am 17.6 18.4 17.4 99 0.1 NNE 9 11 5 6 1022.1 1021.9 37.2
22/12:59am 17.6 18.4 17.4 99 0.1 NNE 9 13 5 7 1022.1 1021.9 37.2
22/12:39am 17.5 18.3 17.2 98 0.2 ENE 9 13 5 7 1021.7 1021.5 35.2
22/12:30am 17.6 18.4 17.3 98 0.2 NE 9 13 5 7 1021.9 1021.7 33.8
22/12:07am 17.5 18.8 17.2 98 0.2 SW 6 13 3 7 1021.6 1021.4 33.0
22/12:00am 17.5 17.9 17.2 98 0.2 SSE 11 17 6 9 1021.5 1021.3 32.8
 
Date/Time
EST
Temp
°C
App
Temp
°C
Dew
Point
°C
Rel
Hum
%
Delta-T
°C
Wind Press
QNH
hPa
Press
MSL
hPa
Rain since
9am
mm
Dir  Spd
km/h
Gust
km/h
Spd
kts
Gust
kts
21/11:30pm 17.4 16.0 16.9 97 0.3 SW 20 32 11 17 1021.8 1021.6 28.6
21/11:23pm 17.5 15.7 16.9 96 0.4 W 22 37 12 20 1022.0 1021.8 25.8
21/11:00pm 17.7 16.5 17.1 96 0.4 SE 19 26 10 14 1020.9 1020.7 22.2
21/10:30pm 17.7 16.5 17.1 96 0.4 SSE 19 28 10 15 1020.7 1020.5 22.2
21/10:01pm 17.9 18.3 17.3 96 0.4 S 11 17 6 9 1021.3 1021.1 22.0
21/10:00pm 17.9 18.3 17.3 96 0.4 S 11 17 6 9 1021.3 1021.1 22.0
21/09:42pm 18.0 18.0 17.2 95 0.5 SE 13 19 7 10 1021.4 1021.2 21.4
21/09:30pm 18.2 19.0 17.4 95 0.5 SSE 9 13 5 7 1021.6 1021.4 20.2
21/09:00pm 18.2 19.0 17.4 95 0.5 SSE 9 15 5 8 1021.2 1021.0 19.8
21/08:30pm 18.5 17.4 17.2 92 0.8 SW 19 30 10 16 1021.8 1021.6 18.6
21/08:15pm 18.5 18.3 17.7 95 0.5 WSW 15 24 8 13 1021.3 1021.1 18.4
21/08:00pm 18.6 18.3 17.4 93 0.7 SW 15 20 8 11 1021.3 1021.1 17.0
21/07:47pm 18.9 18.1 17.2 90 1.0 WNW 17 30 9 16 1021.1 1020.9 11.8
21/07:34pm 20.2 18.2 15.4 74 2.9 NW 20 35 11 19 1020.8 1020.6 6.8
21/07:30pm 21.2 18.3 15.1 68 3.6 W 24 44 13 24 1020.5 1020.3 3.0
21/07:29pm 21.6 18.7 15.2 67 3.8 WSW 24 46 13 25 1020.4 1020.2 2.0
21/07:19pm 24.1 21.9 13.3 51 6.3 S 17 52 9 28 1018.9 1018.6 0.0
21/07:00pm 24.9 24.2 13.1 48 6.9 ESE 9 11 5 6 1018.2 1017.9 0.0
21/06:30pm 25.0 24.7 12.6 46 7.2 ENE 6 9 3 5 1017.9 1017.6 0.0
21/06:00pm 25.2 24.6 12.4 45 7.4 NE 7 9 4 5 1017.7 1017.4 0.0
21/05:30pm 27.1 26.1 12.3 39 8.6 NE 9 11 5 6 1017.8 1017.5 0.0
21/05:00pm 28.1 26.1 12.8 38 9.0 NNE 15 19 8 10 1017.8 1017.5 0.0
21/04:30pm 28.4 27.4 12.3 37 9.4 NNW 9 15 5 8 1017.8 1017.5 0.0
21/04:00pm 28.7 27.4 12.6 37 9.5 NNW 11 17 6 9 1018.0 1017.7 0.0
21/03:30pm 28.6 26.5 12.5 37 9.5 NNW 15 19 8 10 1018.0 1017.7 0.0
21/03:00pm 29.0 26.1 12.4 36 9.7 NNW 19 24 10 13 1018.4 1018.1 0.0
21/02:30pm 29.2 26.8 12.6 36 9.8 NNW 17 22 9 12 1018.4 1018.1 0.0
21/02:00pm 29.0 26.0 12.4 36 9.7 N 20 28 11 15 1018.5 1018.2 0.0
21/01:30pm 28.8 26.5 13.1 38 9.3 N 17 24 9 13 1018.8 1018.5 0.0
21/01:00pm 28.0 24.8 13.1 39 8.8 N 22 30 12 16 1019.2 1019.0 0.0
21/12:30pm 28.6 25.5 13.3 39 9.1 N 22 30 12 16 1019.7 1019.5 0.0
21/12:00pm 27.6 24.5 13.5 41 8.4 N 22 30 12 16 1020.0 1019.8 0.0
21/11:30am 27.1 23.2 13.4 42 8.1 N 26 33 14 18 1020.5 1020.3 0.0
21/11:00am 26.6 23.7 14.0 46 7.5 N 22 28 12 15 1020.8 1020.6 0.0
21/10:30am 25.2 22.4 14.3 50 6.5 N 22 30 12 16 1020.9 1020.7 0.0
21/10:00am 24.3 20.7 14.1 53 6.0 N 26 35 14 19 1020.8 1020.6 0.0
21/09:30am 23.8 21.3 14.2 55 5.7 NNE 20 28 11 15 1021.0 1020.8 0.0
21/09:00am 23.5 22.6 14.8 58 5.2 NE 13 20 7 11 1021.1 1020.9 0.0
21/08:30am 22.2 22.5 14.6 62 4.5 SSW 6 11 3 6 1021.1 1020.9 0.0
21/08:00am 21.7 22.0 14.6 64 4.2 W 6 13 3 7 1020.8 1020.6 0.0
21/07:30am 20.7 20.8 13.9 65 4.0 ENE 6 13 3 7 1020.4 1020.2 0.0
21/07:00am 20.7 21.2 13.9 65 3.9 E 4 9 2 5 1020.3 1020.1 0.0
21/06:30am 20.0 19.7 13.2 65 3.9 SE 7 11 4 6 1020.1 1019.9 0.0
21/06:00am 20.8 19.3 13.0 61 4.5 NNE 13 17 7 9 1019.9 1019.7 0.0
21/05:30am 21.4 18.8 13.3 60 4.7 N 19 26 10 14 1019.6 1019.4 0.0
21/05:00am 21.6 19.8 13.2 59 4.8 N 15 24 8 13 1019.5 1019.3 0.0
21/04:30am 21.4 19.0 12.5 57 5.1 N 17 26 9 14 1019.2 1019.0 0.0
21/04:00am 21.3 19.1 12.2 56 5.1 N 15 20 8 11 1019.2 1019.0 0.0
21/03:30am 21.5 18.6 10.9 51 5.9 N 17 20 9 11 1019.4 1019.2 0.0
21/03:00am 22.5 19.2 10.9 48 6.4 NNE 19 24 10 13 1019.3 1019.1 0.0
21/02:30am 22.8 19.8 10.6 46 6.8 NNE 17 24 9 13 1019.4 1019.2 0.0
21/02:00am 18.6 16.8 9.4 55 4.9 ENE 9 13 5 7 1019.6 1019.4 0.0
21/01:30am 19.1 16.7 9.9 55 4.9 ENE 13 13 7 7 1019.7 1019.5 0.0
21/01:00am 21.0 18.1 9.6 48 6.1 ENE 15 15 8 8 1019.7 1019.5 0.0
21/12:30am 22.4 19.1 9.6 44 7.0 ENE 17 19 9 10 1019.8 1019.6 0.0
21/12:00am 19.8 16.5 9.4 51 5.5 ENE 17 20 9 11 1020.0 1019.8 0.0

Other formats

Comma delimited format used in spreadsheet applications
http://www.bom.gov.au/fwo/IDN60801/IDN60801.95704.axf

JavaScript Object Notation format (JSON) in row-major order
http://www.bom.gov.au/fwo/IDN60801/IDN60801.95704.json

Data quality

Most of these data are generated automatically and are frequently updated. Quality checks on data are not normally performed. It is possible for incorrect values to appear. Refer to information at About Latest Weather Observations and please check the disclaimer before using these data.